Time;durP1;ratioP1;P1;durP2;ratioP2;P2;SDS_P1;SDS_P2;PMS_P1;PMS_P2;Temp;Humidity;BMP_temperature;BMP_pressure;BME280_temperature;BME280_humidity;BME280_pressure;Samples;Min_cycle;Max_cycle;Signal;HPM_P1;HPM_P2
2022/07/06 00:01:54;;;;;;;;;3.75;3.00;;;;;20.43;45.51;102389.81;5061303;28;46512;-53
2022/07/06 00:04:20;;;;;;;;;4.50;2.25;;;;;20.43;46.07;102392.50;5061734;28;45429;-52
2022/07/06 00:06:45;;;;;;;;;2.50;2.50;;;;;20.42;45.77;102395.28;5069307;27;45323;-49
2022/07/06 00:09:11;;;;;;;;;2.50;2.00;;;;;20.36;46.13;102397.44;5091686;27;45627;-53
2022/07/06 00:11:37;;;;;;;;;3.00;3.00;;;;;20.35;46.51;102400.25;5064176;28;45933;-52
2022/07/06 00:14:03;;;;;;;;;2.50;2.00;;;;;20.36;46.17;102394.78;5061707;28;45299;-49
2022/07/06 00:16:29;;;;;;;;;4.50;2.75;;;;;20.36;46.45;102391.25;5061524;28;45520;-48
2022/07/06 00:18:55;;;;;;;;;2.75;2.75;;;;;20.34;46.34;102394.03;5061665;28;45302;-54
2022/07/06 00:21:21;;;;;;;;;1.75;1.75;;;;;20.32;46.41;102390.63;5073118;27;45342;-53
2022/07/06 00:23:47;;;;;;;;;1.75;1.75;;;;;20.31;46.78;102393.44;5070023;28;45329;-51
2022/07/06 00:26:13;;;;;;;;;2.50;2.25;;;;;20.29;46.61;102384.63;5075896;27;45535;-50
2022/07/06 00:28:38;;;;;;;;;4.00;2.00;;;;;20.29;47.07;102382.81;5071488;28;45359;-48
2022/07/06 00:31:05;;;;;;;;;3.00;3.00;;;;;20.31;46.73;102390.75;5069435;28;45391;-51
2022/07/06 00:33:31;;;;;;;;;2.00;2.00;;;;;20.32;46.67;102389.78;5069186;27;45418;-48
2022/07/06 00:35:57;;;;;;;;;1.75;1.75;;;;;20.32;47.35;102387.97;5070513;28;45270;-49
2022/07/06 00:38:23;;;;;;;;;3.50;1.50;;;;;20.31;47.25;102388.06;5067144;28;45468;-53
2022/07/06 00:40:48;;;;;;;;;4.50;2.50;;;;;20.30;47.05;102392.56;5071235;28;45858;-48
2022/07/06 00:43:14;;;;;;;;;4.00;3.00;;;;;20.29;47.40;102396.19;5071203;28;45354;-48
2022/07/06 00:45:39;;;;;;;;;1.75;1.75;;;;;20.30;47.52;102389.00;5071382;28;46563;-48
2022/07/06 00:48:05;;;;;;;;;2.25;2.25;;;;;20.28;47.60;102374.91;5069647;28;45429;-47
2022/07/06 00:50:31;;;;;;;;;4.00;3.00;;;;;20.23;47.17;102382.44;5071233;28;46200;-48
2022/07/06 00:53:01;;;;;;;;;3.50;3.50;;;;;20.21;47.71;102387.88;5071203;28;45381;-49
2022/07/06 00:55:29;;;;;;;;;3.00;2.50;;;;;20.21;47.84;102385.19;5071557;28;45477;-50
2022/07/06 00:57:56;;;;;;;;;3.50;2.00;;;;;20.20;47.41;102388.84;5070448;28;45313;-49
2022/07/06 01:00:26;;;;;;;;;1.50;1.50;;;;;20.18;47.51;102387.25;5069342;28;45168;-49
2022/07/06 01:02:52;;;;;;;;;1.50;1.50;;;;;20.16;47.65;102392.72;5075650;28;45392;-48
2022/07/06 01:05:18;;;;;;;;;3.00;3.00;;;;;20.14;47.65;102386.63;5071428;28;45280;-47
2022/07/06 01:07:45;;;;;;;;;3.00;3.00;;;;;20.10;47.76;102387.81;5071351;28;45279;-49
2022/07/06 01:10:12;;;;;;;;;3.00;3.00;;;;;20.06;47.67;102389.88;5065798;28;45449;-47
2022/07/06 01:12:40;;;;;;;;;5.00;4.00;;;;;20.06;48.16;102394.34;5072006;28;45358;-51
2022/07/06 01:15:08;;;;;;;;;2.00;2.00;;;;;20.05;47.98;102393.50;5074653;28;45519;-52
2022/07/06 01:17:34;;;;;;;;;2.00;2.00;;;;;20.03;47.88;102395.44;5068383;28;45435;-52
2022/07/06 01:20:26;;;;;;;;;4.25;3.75;;;;;20.03;48.04;102394.59;5066358;28;45502;-50
2022/07/06 01:22:53;;;;;;;;;2.50;2.00;;;;;19.98;48.13;102397.59;5063891;28;45484;-48
2022/07/06 01:25:20;;;;;;;;;2.50;2.50;;;;;19.97;48.14;102395.88;5069533;28;45325;-47
2022/07/06 01:27:46;;;;;;;;;4.25;2.25;;;;;19.97;48.36;102395.88;5067307;28;45309;-51
2022/07/06 01:30:14;;;;;;;;;2.50;2.50;;;;;19.98;48.63;102388.72;5065213;28;45380;-48
2022/07/06 01:32:41;;;;;;;;;4.00;3.00;;;;;19.98;48.67;102392.22;5067981;28;45276;-48
2022/07/06 01:35:10;;;;;;;;;2.50;1.50;;;;;19.96;48.76;102387.97;5064477;28;45318;-48
2022/07/06 01:37:36;;;;;;;;;6.50;4.00;;;;;19.94;48.63;102388.09;5064318;28;45501;-53
2022/07/06 01:40:05;;;;;;;;;3.25;3.25;;;;;19.93;48.46;102386.38;5064108;28;45657;-54
2022/07/06 01:42:30;;;;;;;;;3.75;3.75;;;;;19.92;48.45;102390.03;5064072;28;45346;-50
2022/07/06 01:44:56;;;;;;;;;4.00;3.00;;;;;19.87;48.69;102385.97;5064294;28;45295;-48
2022/07/06 01:47:22;;;;;;;;;4.75;3.00;;;;;19.85;48.56;102393.25;5064192;28;45446;-48
2022/07/06 01:49:48;;;;;;;;;5.00;4.00;;;;;19.83;48.94;102390.69;5064026;28;45417;-49
2022/07/06 01:52:15;;;;;;;;;4.25;4.25;;;;;19.84;48.71;102391.56;5063909;28;45339;-51
2022/07/06 01:54:40;;;;;;;;;2.25;2.25;;;;;19.85;48.84;102393.25;5063936;28;45617;-48
2022/07/06 01:57:06;;;;;;;;;3.00;2.50;;;;;19.84;48.83;102389.72;5063907;28;45237;-52
2022/07/06 01:59:31;;;;;;;;;3.50;3.00;;;;;19.83;48.86;102381.78;5063919;28;45325;-50
2022/07/06 02:01:57;;;;;;;;;4.00;3.00;;;;;19.82;49.02;102386.28;5063872;28;45224;-51
2022/07/06 02:04:22;;;;;;;;;3.50;2.50;;;;;19.77;49.50;102385.78;5062651;28;45458;-51
2022/07/06 02:06:48;;;;;;;;;3.75;3.00;;;;;19.75;49.43;102385.06;5063912;28;45494;-53
2022/07/06 02:09:13;;;;;;;;;3.50;3.50;;;;;19.72;49.19;102383.44;5063546;28;45369;-48
2022/07/06 02:11:39;;;;;;;;;3.50;2.50;;;;;19.75;49.55;102390.41;5063707;28;45422;-47
2022/07/06 02:14:04;;;;;;;;;5.00;3.25;;;;;19.75;49.14;102383.22;5064159;28;45323;-47
2022/07/06 02:16:30;;;;;;;;;2.25;2.25;;;;;19.75;49.43;102383.22;5063750;28;45317;-51
2022/07/06 02:18:55;;;;;;;;;3.50;3.25;;;;;19.75;49.31;102369.84;5063998;28;45367;-48
2022/07/06 02:21:21;;;;;;;;;7.00;5.00;;;;;19.73;49.79;102382.47;5084119;28;45421;-48
2022/07/06 02:23:46;;;;;;;;;2.50;2.00;;;;;19.71;49.19;102376.38;5084171;28;45271;-49
2022/07/06 02:26:12;;;;;;;;;4.25;3.00;;;;;19.70;49.37;102372.00;5076330;28;45555;-49
2022/07/06 02:28:37;;;;;;;;;7.00;4.00;;;;;19.71;49.46;102379.06;5063647;28;45927;-51
2022/07/06 02:31:03;;;;;;;;;6.00;5.75;;;;;19.68;49.52;102373.94;5063658;28;45329;-48
2022/07/06 02:33:28;;;;;;;;;6.00;4.00;;;;;19.70;50.14;102371.16;5063453;28;45306;-50
2022/07/06 02:35:54;;;;;;;;;5.00;3.50;;;;;19.69;49.89;102364.94;5063617;28;45219;-48
2022/07/06 02:38:19;;;;;;;;;4.00;4.00;;;;;19.66;50.07;102354.44;5063305;28;45405;-48
2022/07/06 02:40:45;;;;;;;;;4.00;3.00;;;;;19.62;50.08;102355.66;5063161;28;45319;-49
2022/07/06 02:43:10;;;;;;;;;5.75;3.75;;;;;19.61;50.15;102359.28;5063471;28;45278;-47
2022/07/06 02:45:36;;;;;;;;;3.75;3.00;;;;;19.57;49.77;102359.63;5062151;28;45174;-47
2022/07/06 02:48:02;;;;;;;;;4.25;4.25;;;;;19.53;50.36;102364.31;5062904;28;46545;-48
2022/07/06 02:50:28;;;;;;;;;5.00;5.00;;;;;19.51;50.12;102367.09;5063145;28;45343;-51
2022/07/06 02:52:54;;;;;;;;;4.00;4.00;;;;;19.54;50.48;102374.03;5063155;28;45441;-46
2022/07/06 02:55:20;;;;;;;;;6.50;4.50;;;;;19.54;50.02;102371.34;5062720;28;45409;-47
2022/07/06 02:57:46;;;;;;;;;4.25;4.25;;;;;19.53;50.28;102383.00;5062694;28;46079;-49
2022/07/06 03:00:12;;;;;;;;;4.00;4.00;;;;;19.53;50.26;102377.66;5062850;28;45477;-48
2022/07/06 03:02:38;;;;;;;;;7.00;5.00;;;;;19.51;50.72;102383.13;5062831;28;45326;-51
2022/07/06 03:05:04;;;;;;;;;6.50;5.50;;;;;19.47;50.11;102394.13;5062662;28;45185;-53
2022/07/06 03:07:29;;;;;;;;;7.00;5.00;;;;;19.44;50.56;102389.88;5062765;28;45299;-46
2022/07/06 03:09:55;;;;;;;;;7.50;4.50;;;;;19.43;50.66;102395.28;5062525;28;45304;-47
2022/07/06 03:12:20;;;;;;;;;5.25;4.00;;;;;19.36;50.40;102394.91;5063113;28;45257;-47
2022/07/06 03:14:46;;;;;;;;;5.50;5.50;;;;;19.33;50.88;102386.22;5062929;28;45310;-46
2022/07/06 03:17:11;;;;;;;;;4.00;3.50;;;;;19.32;50.53;102388.03;5062508;28;45332;-45
2022/07/06 03:19:37;;;;;;;;;8.00;4.50;;;;;19.31;50.97;102391.69;5068853;28;45420;-47
2022/07/06 03:22:03;;;;;;;;;5.25;4.00;;;;;19.25;50.62;102384.94;5083089;28;45289;-46
2022/07/06 03:24:28;;;;;;;;;5.00;5.00;;;;;19.20;50.50;102389.78;5082999;28;45302;-50
2022/07/06 03:26:54;;;;;;;;;4.25;4.00;;;;;19.16;50.79;102387.41;5069654;28;45352;-47
2022/07/06 03:29:20;;;;;;;;;5.00;5.00;;;;;19.15;51.15;102391.03;5062491;28;45318;-46
2022/07/06 03:31:46;;;;;;;;;7.25;4.75;;;;;19.15;50.79;102397.25;5062522;28;45301;-49
2022/07/06 03:34:11;;;;;;;;;8.00;5.00;;;;;19.12;51.00;102397.47;5062501;28;45470;-50
2022/07/06 03:36:37;;;;;;;;;4.00;4.00;;;;;19.08;51.10;102390.59;5062367;28;46115;-48
2022/07/06 03:39:03;;;;;;;;;4.75;4.75;;;;;19.08;51.01;102398.63;5062183;28;45309;-48
2022/07/06 03:41:29;;;;;;;;;7.00;4.00;;;;;19.07;51.36;102398.72;5062331;28;45239;-46
2022/07/06 03:43:54;;;;;;;;;6.00;4.50;;;;;19.05;51.67;102403.34;5062404;28;45246;-50
2022/07/06 03:46:20;;;;;;;;;6.50;6.00;;;;;19.05;51.20;102400.66;5062044;28;46096;-47
2022/07/06 03:48:45;;;;;;;;;4.50;4.50;;;;;19.02;51.17;102401.69;5062046;28;45236;-46
2022/07/06 03:51:11;;;;;;;;;6.00;5.50;;;;;19.00;51.73;102400.97;5062224;28;45236;-48
2022/07/06 03:53:37;;;;;;;;;5.25;4.50;;;;;19.02;51.82;102395.50;5062203;28;45161;-46
2022/07/06 03:58:47;;;;;;;;;6.00;5.50;;;;;18.98;51.58;102402.88;5062049;28;45294;-48
2022/07/06 04:01:12;;;;;;;;;6.00;6.00;;;;;18.96;51.88;102402.16;5062171;28;45356;-49
2022/07/06 04:03:38;;;;;;;;;6.75;5.00;;;;;18.95;52.00;102401.25;5062076;28;45314;-50
2022/07/06 04:06:04;;;;;;;;;4.00;4.00;;;;;18.94;51.94;102406.72;5061601;28;45437;-48
2022/07/06 04:08:29;;;;;;;;;7.50;4.00;;;;;18.90;52.09;102408.75;5061578;28;45399;-51
2022/07/06 04:10:55;;;;;;;;;8.00;5.00;;;;;18.86;51.73;102403.72;5061499;28;45449;-51
2022/07/06 04:13:20;;;;;;;;;5.00;4.50;;;;;18.84;52.21;102408.31;5061889;28;45508;-50
2022/07/06 04:15:46;;;;;;;;;6.00;6.00;;;;;18.83;51.75;102412.78;5061501;28;45497;-51
2022/07/06 04:18:11;;;;;;;;;7.50;6.75;;;;;18.84;52.32;102413.66;5061503;28;45350;-47
2022/07/06 04:20:37;;;;;;;;;14.25;7.00;;;;;18.82;52.64;102408.41;5076446;28;45318;-47
2022/07/06 04:23:02;;;;;;;;;7.25;6.00;;;;;18.82;52.39;102407.56;5082119;28;45252;-47
2022/07/06 04:25:28;;;;;;;;;7.25;5.75;;;;;18.81;52.95;102412.03;5081485;28;45741;-48
2022/07/06 04:27:53;;;;;;;;;5.00;5.00;;;;;18.79;52.85;102407.75;5081978;28;45261;-53
2022/07/06 04:30:19;;;;;;;;;5.50;5.50;;;;;18.81;52.77;102416.53;5082015;28;45295;-52
2022/07/06 04:32:44;;;;;;;;;5.00;5.00;;;;;18.81;52.57;102408.53;5081959;28;45250;-46
2022/07/06 04:35:11;;;;;;;;;6.75;6.00;;;;;18.83;52.51;102410.13;5081629;27;46228;-47
2022/07/06 04:37:37;;;;;;;;;4.75;4.00;;;;;18.85;52.68;102408.19;5081782;28;45422;-49
2022/07/06 04:40:03;;;;;;;;;4.25;4.25;;;;;18.88;52.79;102401.78;5081702;28;45238;-48
2022/07/06 04:42:29;;;;;;;;;6.50;5.00;;;;;18.88;52.95;102409.78;5081763;28;45332;-50
2022/07/06 04:44:54;;;;;;;;;6.50;6.00;;;;;18.91;52.87;102394.44;5081483;28;45486;-48
2022/07/06 04:47:20;;;;;;;;;7.75;6.00;;;;;18.94;52.64;102404.91;5079964;27;45469;-49
2022/07/06 04:49:45;;;;;;;;;7.50;6.75;;;;;19.00;53.01;102408.13;5081488;28;45378;-49
2022/07/06 04:52:11;;;;;;;;;9.00;6.75;;;;;19.02;53.11;102407.03;5081918;28;45402;-47
2022/07/06 04:54:37;;;;;;;;;6.00;6.00;;;;;19.08;52.88;102408.44;5081187;28;45259;-49
2022/07/06 04:57:03;;;;;;;;;6.25;6.00;;;;;19.09;52.65;102410.16;5081355;28;45438;-47
2022/07/06 04:59:28;;;;;;;;;8.00;7.50;;;;;19.04;52.74;102413.16;5081418;28;45478;-47
2022/07/06 05:01:54;;;;;;;;;10.75;7.75;;;;;19.04;52.66;102418.50;5081488;28;45432;-47
2022/07/06 05:04:19;;;;;;;;;7.75;7.75;;;;;19.03;52.78;102413.25;5081136;28;46220;-47
2022/07/06 05:06:46;;;;;;;;;6.50;6.00;;;;;19.02;52.78;102411.53;5080949;28;45314;-48
2022/07/06 05:09:14;;;;;;;;;10.00;8.00;;;;;19.00;53.07;102403.63;5081101;28;45240;-51
2022/07/06 05:11:39;;;;;;;;;9.50;9.25;;;;;19.00;52.92;102410.78;5081201;28;45543;-47
2022/07/06 05:14:06;;;;;;;;;10.50;9.25;;;;;19.00;52.72;102408.97;5081035;28;46409;-49
2022/07/06 05:16:32;;;;;;;;;10.00;8.00;;;;;18.98;52.58;102418.06;5079876;28;45296;-48
2022/07/06 05:18:57;;;;;;;;;9.50;8.25;;;;;18.93;52.59;102411.19;5071849;28;45471;-48
2022/07/06 05:21:23;;;;;;;;;11.75;9.25;;;;;18.95;52.47;102419.97;5081137;28;45457;-49
2022/07/06 05:23:49;;;;;;;;;9.75;8.00;;;;;18.95;52.90;102419.97;5080833;27;45336;-50
2022/07/06 05:26:14;;;;;;;;;9.75;9.75;;;;;18.96;52.61;102419.03;5073694;28;45442;-50
2022/07/06 05:28:40;;;;;;;;;11.25;8.50;;;;;19.02;52.68;102414.19;5060986;28;45340;-50
2022/07/06 05:31:05;;;;;;;;;11.50;6.25;;;;;19.07;52.52;102417.44;5060920;28;45321;-48
2022/07/06 05:33:31;;;;;;;;;8.75;7.50;;;;;19.13;52.61;102414.34;5060502;28;45961;-52
2022/07/06 05:35:56;;;;;;;;;8.25;7.25;;;;;19.19;52.64;102417.41;5060669;28;45442;-49
2022/07/06 05:38:22;;;;;;;;;10.75;9.00;;;;;19.25;52.86;102416.16;5060903;28;45338;-49
2022/07/06 05:40:48;;;;;;;;;12.00;9.00;;;;;19.35;52.74;102422.56;5063146;28;45164;-50
2022/07/06 05:43:13;;;;;;;;;8.00;7.00;;;;;19.47;52.82;102421.72;5068205;28;45464;-50
2022/07/06 05:45:38;;;;;;;;;10.75;10.25;;;;;19.55;52.32;102426.53;5065366;28;45555;-49
2022/07/06 05:50:48;;;;;;;;;13.00;9.00;;;;;19.66;52.57;102429.31;5063266;28;45237;-47
2022/07/06 05:53:14;;;;;;;;;10.00;8.00;;;;;19.70;52.65;102421.94;5060108;28;45326;-48
2022/07/06 05:55:39;;;;;;;;;11.50;8.00;;;;;19.76;52.18;102419.69;5061980;28;45256;-53
2022/07/06 05:58:05;;;;;;;;;9.75;9.00;;;;;19.80;52.43;102426.53;5067911;28;45456;-46
2022/07/06 06:00:31;;;;;;;;;11.50;9.00;;;;;19.81;52.21;102424.69;5069541;28;45418;-47
2022/07/06 06:02:58;;;;;;;;;12.50;10.00;;;;;19.85;51.88;102434.22;5066614;28;45315;-48
2022/07/06 06:05:23;;;;;;;;;10.50;7.50;;;;;19.92;52.46;102431.97;5067983;28;45401;-47
2022/07/06 06:07:51;;;;;;;;;12.75;10.25;;;;;19.97;52.25;102430.66;5067813;28;45160;-51
2022/07/06 06:10:18;;;;;;;;;11.75;10.00;;;;;20.00;51.67;102434.94;5068040;28;45359;-51
2022/07/06 06:12:44;;;;;;;;;10.25;10.25;;;;;20.03;52.20;102438.25;5067853;28;46105;-49
2022/07/06 06:15:11;;;;;;;;;13.50;11.00;;;;;20.05;51.98;102441.66;5070510;28;45389;-48
2022/07/06 06:17:37;;;;;;;;;12.50;10.25;;;;;20.08;51.89;102440.59;5070414;28;45505;-47
2022/07/06 06:20:06;;;;;;;;;12.25;11.50;;;;;20.13;51.67;102445.59;5080634;28;45467;-48
2022/07/06 06:22:43;;;;;;;;;14.50;13.25;;;;;20.17;51.60;102449.78;5072520;28;45508;-49
2022/07/06 06:25:09;;;;;;;;;20.00;12.50;;;;;20.22;51.47;102447.59;5073057;28;45445;-47
2022/07/06 06:27:34;;;;;;;;;14.00;12.00;;;;;20.25;51.79;102439.38;5069709;28;45423;-50
2022/07/06 06:30:00;;;;;;;;;17.25;11.25;;;;;20.28;51.64;102445.34;5072210;28;45479;-47
2022/07/06 06:32:25;;;;;;;;;14.50;12.50;;;;;20.36;51.50;102442.09;5068926;28;46006;-49
2022/07/06 06:34:51;;;;;;;;;12.00;10.00;;;;;20.40;51.49;102443.59;5072032;28;45318;-47
2022/07/06 06:37:16;;;;;;;;;16.75;11.25;;;;;20.46;51.42;102440.50;5068215;28;45430;-49
2022/07/06 06:39:41;;;;;;;;;12.00;9.75;;;;;20.52;51.01;102440.03;5062891;28;45308;-49
2022/07/06 06:42:07;;;;;;;;;14.00;10.00;;;;;20.59;51.14;102443.09;5061960;28;45476;-49
2022/07/06 06:44:33;;;;;;;;;9.25;9.00;;;;;20.66;50.46;102444.38;5063115;28;45452;-48
2022/07/06 06:46:58;;;;;;;;;12.00;8.50;;;;;20.72;50.67;102449.25;5063154;28;45367;-47
2022/07/06 06:49:24;;;;;;;;;14.00;10.75;;;;;20.77;50.33;102447.06;5063320;28;45228;-47
2022/07/06 06:51:49;;;;;;;;;11.00;9.00;;;;;20.83;50.00;102446.63;5062725;28;45214;-52
2022/07/06 06:54:15;;;;;;;;;15.50;12.00;;;;;20.91;50.09;102443.38;5062780;28;45274;-52
2022/07/06 06:56:40;;;;;;;;;11.00;7.50;;;;;20.95;50.23;102447.53;5062917;28;45235;-48
2022/07/06 06:59:06;;;;;;;;;9.50;7.50;;;;;20.96;49.81;102449.25;5063213;28;45302;-49
2022/07/06 07:01:32;;;;;;;;;13.75;9.25;;;;;21.00;49.82;102449.84;5062376;28;46216;-48
2022/07/06 07:03:58;;;;;;;;;11.75;9.50;;;;;21.04;49.36;102454.00;5062845;28;45162;-47
2022/07/06 07:06:23;;;;;;;;;9.50;6.75;;;;;21.06;49.54;102452.91;5062686;28;45289;-47
2022/07/06 07:08:49;;;;;;;;;10.00;8.25;;;;;21.12;49.39;102451.59;5062783;28;45280;-49
2022/07/06 07:11:14;;;;;;;;;10.00;8.25;;;;;21.17;49.08;102455.66;5062610;28;45841;-48
2022/07/06 07:13:40;;;;;;;;;9.50;8.75;;;;;21.21;49.01;102442.00;5063060;28;45399;-48
2022/07/06 07:16:06;;;;;;;;;12.75;7.75;;;;;21.22;49.04;102443.69;5062744;28;45236;-49
2022/07/06 07:18:31;;;;;;;;;7.00;7.00;;;;;21.23;49.04;102450.75;5062764;28;45333;-52
2022/07/06 07:20:57;;;;;;;;;7.50;6.50;;;;;21.25;48.68;102452.38;5079905;28;45631;-53
2022/07/06 07:23:22;;;;;;;;;11.75;9.25;;;;;21.26;48.51;102455.91;5083065;28;45489;-50
2022/07/06 07:25:48;;;;;;;;;6.25;4.50;;;;;21.29;48.42;102453.00;5079012;28;45433;-50
2022/07/06 07:28:13;;;;;;;;;10.25;8.50;;;;;21.32;48.39;102458.13;5062758;28;45341;-53
2022/07/06 07:30:39;;;;;;;;;8.50;7.50;;;;;21.35;48.10;102457.91;5061703;28;45318;-50
2022/07/06 07:33:04;;;;;;;;;11.25;7.50;;;;;21.37;48.01;102454.13;5062405;28;45318;-49
2022/07/06 07:35:30;;;;;;;;;7.25;6.00;;;;;21.40;47.98;102453.88;5062546;28;45222;-49
2022/07/06 07:37:55;;;;;;;;;10.50;9.50;;;;;21.45;47.99;102443.66;5062944;28;45250;-49
2022/07/06 07:40:21;;;;;;;;;8.75;8.25;;;;;21.50;47.62;102448.66;5061947;28;45961;-52
2022/07/06 07:42:47;;;;;;;;;6.00;6.00;;;;;21.56;47.55;102444.63;5062478;28;45759;-50
2022/07/06 07:45:12;;;;;;;;;5.75;5.75;;;;;21.58;47.58;102448.06;5062369;28;45648;-47
2022/07/06 07:47:38;;;;;;;;;4.00;4.00;;;;;21.61;47.11;102440.63;5062513;28;45218;-51
2022/07/06 07:50:05;;;;;;;;;5.25;4.75;;;;;21.63;46.86;102445.84;5062109;28;45397;-51
2022/07/06 07:52:31;;;;;;;;;6.50;3.75;;;;;21.65;46.30;102441.25;5062298;28;45413;-50
2022/07/06 07:54:56;;;;;;;;;7.00;6.00;;;;;21.71;46.33;102443.41;5061940;28;45297;-51
2022/07/06 07:57:22;;;;;;;;;9.25;6.00;;;;;21.76;46.10;102443.06;5062352;28;45331;-50
2022/07/06 07:59:47;;;;;;;;;9.25;6.75;;;;;21.78;46.08;102450.00;5061971;28;45792;-51
2022/07/06 08:02:13;;;;;;;;;10.25;6.00;;;;;21.82;46.12;102445.25;5061925;28;45482;-49
2022/07/06 08:04:38;;;;;;;;;9.25;6.00;;;;;21.89;46.00;102443.78;5061776;28;45326;-50
2022/07/06 08:07:04;;;;;;;;;7.50;6.00;;;;;21.95;45.91;102440.59;5062118;28;45223;-47
2022/07/06 08:09:29;;;;;;;;;9.00;6.00;;;;;22.01;45.63;102432.91;5061517;28;45773;-53
2022/07/06 08:11:55;;;;;;;;;10.75;7.00;;;;;22.03;45.66;102438.16;5062165;28;45251;-49
2022/07/06 08:14:21;;;;;;;;;9.50;7.75;;;;;22.03;45.50;102433.63;5061998;28;45410;-47
2022/07/06 08:16:46;;;;;;;;;7.00;7.00;;;;;22.07;45.53;102438.78;5062052;28;45206;-51
2022/07/06 08:19:14;;;;;;;;;7.50;6.25;;;;;22.06;45.38;102431.69;5064166;28;45321;-48
2022/07/06 08:21:41;;;;;;;;;8.00;4.75;;;;;22.10;45.23;102435.84;5082318;28;45335;-49
2022/07/06 08:24:06;;;;;;;;;10.25;5.75;;;;;22.14;44.94;102429.28;5075265;27;45563;-50
2022/07/06 08:26:32;;;;;;;;;8.25;6.00;;;;;22.18;45.15;102441.44;5069154;28;45513;-48
2022/07/06 08:28:58;;;;;;;;;6.00;6.00;;;;;22.24;45.02;102440.97;5066811;27;45340;-50
2022/07/06 08:31:23;;;;;;;;;13.00;8.50;;;;;22.28;44.93;102434.38;5066649;28;45322;-50
2022/07/06 08:33:48;;;;;;;;;11.00;9.00;;;;;22.33;44.69;102433.97;5065744;28;45343;-51
2022/07/06 08:36:14;;;;;;;;;11.25;6.50;;;;;22.39;44.53;102434.34;5075123;28;45157;-50
2022/07/06 08:38:40;;;;;;;;;7.00;5.50;;;;;22.44;44.51;102439.34;5069250;28;46071;-53
2022/07/06 08:41:06;;;;;;;;;7.00;5.00;;;;;22.48;44.61;102433.56;5069560;28;45313;-53
2022/07/06 08:43:34;;;;;;;;;6.50;6.25;;;;;22.53;44.47;102435.88;5067016;27;45244;-57
2022/07/06 08:46:01;;;;;;;;;7.50;6.00;;;;;22.51;44.23;102433.34;5071740;28;45314;-57
2022/07/06 08:48:30;;;;;;;;;7.75;5.00;;;;;22.55;44.27;102432.09;5074901;28;45556;-57
2022/07/06 08:50:55;;;;;;;;;8.00;7.75;;;;;22.61;43.93;102427.19;5078083;27;45232;-57
2022/07/06 08:53:22;;;;;;;;;12.25;5.75;;;;;22.66;44.18;102435.69;5065595;27;45202;-56
2022/07/06 08:55:50;;;;;;;;;6.25;6.00;;;;;22.72;43.99;102432.50;5061284;28;45350;-54
2022/07/06 08:58:15;;;;;;;;;5.00;5.00;;;;;22.77;43.89;102427.59;5061310;28;45410;-48
2022/07/06 09:00:42;;;;;;;;;7.75;7.00;;;;;22.82;43.64;102422.69;5060989;28;45354;-56
2022/07/06 09:03:12;;;;;;;;;8.75;6.00;;;;;22.86;43.51;102426.00;5060678;28;45355;-52
2022/07/06 09:05:40;;;;;;;;;9.25;7.50;;;;;22.86;43.72;102424.16;5060994;28;45362;-59
2022/07/06 09:08:05;;;;;;;;;6.75;5.75;;;;;22.91;43.74;102415.69;5060528;28;46002;-61
2022/07/06 09:10:31;;;;;;;;;6.00;5.50;;;;;22.92;43.63;102420.13;5060647;28;45472;-60
2022/07/06 09:13:07;;;;;;;;;8.25;5.00;;;;;22.96;43.74;102421.53;5067626;28;45252;-60
2022/07/06 09:15:33;;;;;;;;;4.75;4.75;;;;;23.00;43.38;102413.09;5063785;28;45395;-60
2022/07/06 09:17:59;;;;;;;;;5.00;3.25;;;;;23.01;43.29;102420.19;5075142;27;45197;-60
2022/07/06 09:20:25;;;;;;;;;3.00;3.00;;;;;23.07;43.23;102418.81;5072219;28;45466;-60
2022/07/06 09:22:50;;;;;;;;;3.75;3.00;;;;;23.11;43.48;102406.78;5087465;27;45281;-59
2022/07/06 09:25:16;;;;;;;;;7.50;5.50;;;;;23.15;43.04;102404.72;5073685;27;45366;-59
2022/07/06 09:27:47;;;;;;;;;6.00;4.75;;;;;23.17;42.96;102408.13;5075405;27;45379;-59
2022/07/06 09:30:14;;;;;;;;;4.75;4.75;;;;;23.20;42.86;102399.78;5073067;27;45479;-59
2022/07/06 09:32:48;;;;;;;;;7.75;7.00;;;;;23.28;42.79;102408.88;5074717;27;45406;-60
2022/07/06 09:35:36;;;;;;;;;8.50;8.00;;;;;23.34;43.00;102412.88;5080171;27;45416;-59
2022/07/06 09:38:12;;;;;;;;;8.50;7.00;;;;;23.39;42.80;102406.13;5070561;28;45907;-58
2022/07/06 09:40:43;;;;;;;;;4.75;4.00;;;;;23.43;42.51;102420.13;5067732;28;45227;-60
2022/07/06 09:43:16;;;;;;;;;25.50;18.50;;;;;23.48;42.34;102409.00;5077433;28;45481;-58
2022/07/06 09:45:48;;;;;;;;;7.00;5.50;;;;;23.52;42.70;102402.34;5080557;27;45282;-60
2022/07/06 09:48:21;;;;;;;;;8.25;5.25;;;;;23.59;41.93;102406.19;5069544;28;45471;-58
2022/07/06 09:50:53;;;;;;;;;3.00;3.00;;;;;23.62;41.60;102398.75;5068395;28;45422;-59
2022/07/06 09:53:20;;;;;;;;;4.00;4.00;;;;;23.68;41.59;102402.72;5072652;27;45721;-59
2022/07/06 09:55:51;;;;;;;;;8.50;4.25;;;;;23.75;41.81;102408.41;5077780;27;45553;-59
2022/07/06 09:58:18;;;;;;;;;10.75;7.25;;;;;23.81;41.91;102408.72;5071968;27;45445;-61
2022/07/06 10:00:45;;;;;;;;;9.25;8.00;;;;;23.85;41.69;102418.22;5068653;28;45474;-59
2022/07/06 10:03:12;;;;;;;;;7.50;7.50;;;;;23.92;41.13;102410.44;5071550;27;45338;-61
2022/07/06 10:05:39;;;;;;;;;4.25;4.00;;;;;23.91;41.62;102400.66;5074209;28;45474;-60
2022/07/06 10:08:08;;;;;;;;;5.25;5.25;;;;;23.85;41.18;102399.38;5069540;27;46200;-62
2022/07/06 10:10:36;;;;;;;;;8.50;6.75;;;;;23.82;41.20;102410.41;5087082;27;45208;-60
2022/07/06 10:13:03;;;;;;;;;5.75;4.75;;;;;23.81;41.52;102403.34;5082995;28;45366;-60
2022/07/06 10:15:31;;;;;;;;;10.00;6.75;;;;;23.80;41.05;102400.78;5072416;27;45599;-58
2022/07/06 10:17:58;;;;;;;;;5.25;4.75;;;;;23.75;41.28;102393.13;5078984;27;45456;-59
2022/07/06 10:20:27;;;;;;;;;5.50;3.50;;;;;23.85;40.90;102398.53;5064317;27;45465;-54
2022/07/06 10:22:57;;;;;;;;;4.00;4.00;;;;;23.97;41.18;102401.97;5079883;28;46162;-57
2022/07/06 10:25:23;;;;;;;;;13.00;8.00;;;;;24.10;40.57;102400.72;5070664;27;45503;-58
2022/07/06 10:27:49;;;;;;;;;4.00;4.00;;;;;24.24;41.16;102405.69;5081508;27;45434;-58
2022/07/06 10:30:15;;;;;;;;;5.50;4.25;;;;;24.38;41.11;102403.63;5082459;28;45307;-59
2022/07/06 10:32:43;;;;;;;;;3.75;3.75;;;;;24.51;40.39;102401.50;5075616;27;45463;-57
2022/07/06 10:35:09;;;;;;;;;5.00;4.00;;;;;24.65;40.49;102398.41;5064837;27;45608;-56
2022/07/06 10:37:35;;;;;;;;;7.50;5.00;;;;;24.75;40.27;102398.38;5081802;27;45876;-55
2022/07/06 10:42:55;;;;;;;;;4.25;4.25;;;;;24.88;40.06;102398.91;5072149;27;45748;-57
2022/07/06 10:45:26;;;;;;;;;8.00;5.25;;;;;24.94;39.72;102398.34;5066303;27;45445;-57
2022/07/06 10:48:10;;;;;;;;;3.75;3.75;;;;;24.93;39.64;102402.03;5081197;27;45488;-57
2022/07/06 10:50:37;;;;;;;;;7.50;5.00;;;;;24.88;40.13;102396.22;5082200;27;45306;-57
2022/07/06 10:53:09;;;;;;;;;5.75;5.75;;;;;24.82;39.90;102394.13;5075993;27;45378;-55
2022/07/06 10:55:37;;;;;;;;;9.75;7.00;;;;;24.83;39.75;102394.97;5078446;27;45889;-51
2022/07/06 10:58:04;;;;;;;;;4.75;4.75;;;;;24.80;39.66;102398.78;5082054;27;45439;-48
2022/07/06 11:01:03;;;;;;;;;6.50;6.00;;;;;24.69;40.14;102396.25;5070907;28;45352;-51
2022/07/06 11:03:48;;;;;;;;;6.50;6.00;;;;;24.61;39.75;102398.81;5059014;27;45376;-46
2022/07/06 11:06:17;;;;;;;;;6.75;6.00;;;;;24.57;39.70;102394.69;5081867;27;45536;-48
2022/07/06 11:08:43;;;;;;;;;5.75;5.00;;;;;24.64;39.99;102391.28;5075865;27;46314;-47
2022/07/06 11:11:19;;;;;;;;;6.00;4.00;;;;;24.71;39.99;102378.94;5083324;27;45676;-47
2022/07/06 11:13:58;;;;;;;;;7.00;6.50;;;;;24.79;39.38;102391.69;5082129;27;45492;-47
2022/07/06 11:16:26;;;;;;;;;8.00;7.00;;;;;24.82;40.04;102375.25;5082882;27;45450;-47
2022/07/06 11:19:07;;;;;;;;;7.25;7.00;;;;;24.82;40.01;102379.78;5067654;27;45464;-48
2022/07/06 11:21:56;;;;;;;;;10.00;7.25;;;;;24.92;39.75;102372.53;5071641;27;45469;-47
2022/07/06 11:24:27;;;;;;;;;8.50;7.00;;;;;25.05;39.78;102373.13;5081281;27;45266;-46
2022/07/06 11:26:53;;;;;;;;;7.25;7.00;;;;;25.17;40.03;102371.09;5080131;27;45507;-49
2022/07/06 11:29:23;;;;;;;;;9.75;7.00;;;;;25.25;39.99;102373.91;5078436;27;45517;-51